createdAt,value
2019-05-18T00:00:10.908Z,100542.83
2019-05-18T00:02:39.575Z,100541.98
2019-05-18T00:05:08.772Z,100544.03
2019-05-18T00:07:37.430Z,100537.95
2019-05-18T00:10:06.880Z,100548.29
2019-05-18T00:12:35.553Z,100537.95
2019-05-18T00:15:05.879Z,100535.78
2019-05-18T00:17:34.587Z,100537.98
2019-05-18T00:20:08.889Z,100531.83
2019-05-18T00:22:37.589Z,100533.88
2019-05-18T00:25:07.910Z,100533.01
2019-05-18T00:27:36.641Z,100533.88
2019-05-18T00:30:09.188Z,100532.52
2019-05-18T00:32:37.982Z,100541.47
2019-05-18T00:35:08.395Z,100528.75
2019-05-18T00:37:37.114Z,100531.16
2019-05-18T00:40:08.835Z,100526.91
2019-05-18T00:42:37.496Z,100531.50
2019-05-18T00:45:09.406Z,100530.11
2019-05-18T00:47:41.974Z,100522.19
2019-05-18T00:50:08.920Z,100528.93
2019-05-18T00:52:37.772Z,100520.14
2019-05-18T00:55:08.307Z,100524.94
2019-05-18T00:57:36.977Z,100523.39
2019-05-18T01:00:10.060Z,100523.03
2019-05-18T01:02:38.812Z,100522.75
2019-05-18T01:05:08.131Z,100527.86
2019-05-18T01:07:37.001Z,100524.19
2019-05-18T01:10:07.794Z,100525.24
2019-05-18T01:12:36.487Z,100519.98
2019-05-18T01:15:07.218Z,100518.08
2019-05-18T01:17:35.902Z,100516.74
2019-05-18T01:20:08.341Z,100514.36
2019-05-18T01:22:37.009Z,100515.19
2019-05-18T01:25:06.247Z,100512.47
2019-05-18T01:27:34.991Z,100508.81
2019-05-18T01:30:05.527Z,100511.00
2019-05-18T01:32:34.270Z,100513.56
2019-05-18T01:35:03.124Z,100503.91
2019-05-18T01:37:31.847Z,100513.09
2019-05-18T01:40:00.599Z,100505.96
2019-05-18T01:42:29.364Z,100506.96
2019-05-18T01:44:58.108Z,100508.59
2019-05-18T01:47:26.817Z,100507.06
2019-05-18T01:49:55.684Z,100502.29
2019-05-18T01:52:24.345Z,100501.44
2019-05-18T01:54:53.045Z,100501.27
2019-05-18T01:57:21.739Z,100496.09
2019-05-18T01:59:50.402Z,100490.48
2019-05-18T02:02:19.182Z,100475.14
2019-05-18T02:04:47.993Z,100495.97
2019-05-18T02:07:16.649Z,100499.31
2019-05-18T02:09:45.306Z,100499.67
2019-05-18T02:12:14.095Z,100496.44
2019-05-18T02:14:42.814Z,100498.13
2019-05-18T02:17:11.553Z,100497.41
2019-05-18T02:19:40.276Z,100501.44
2019-05-18T02:22:08.961Z,100498.33
2019-05-18T02:24:37.648Z,100498.16
2019-05-18T02:27:06.369Z,100494.23
2019-05-18T02:29:35.050Z,100497.45
2019-05-18T02:32:03.801Z,100501.52
2019-05-18T02:34:32.595Z,100492.34
2019-05-18T02:37:01.345Z,100494.05
2019-05-18T02:39:30.418Z,100491.49
2019-05-18T02:41:59.267Z,100493.00
2019-05-18T02:44:27.973Z,100495.34
2019-05-18T02:46:56.643Z,100495.46
2019-05-18T02:49:25.344Z,100494.44
2019-05-18T02:51:54.056Z,100495.59
2019-05-18T02:54:22.738Z,100491.48
2019-05-18T02:56:51.455Z,100492.30
2019-05-18T02:59:20.141Z,100483.12
2019-05-18T03:01:48.813Z,100486.36
2019-05-18T03:04:17.525Z,100492.94
2019-05-18T03:06:46.686Z,100490.38
2019-05-18T03:09:15.382Z,100488.14
2019-05-18T03:11:44.121Z,100487.42
2019-05-18T03:14:12.843Z,100479.96
2019-05-18T03:16:41.575Z,100482.83
2019-05-18T03:19:10.303Z,100479.27
2019-05-18T03:21:39.057Z,100484.70
2019-05-18T03:24:07.795Z,100483.38
2019-05-18T03:26:37.907Z,100485.06
2019-05-18T03:29:06.560Z,100482.20
2019-05-18T03:31:35.229Z,100479.33
2019-05-18T03:34:04.003Z,100477.45
2019-05-18T03:36:32.665Z,100477.84
2019-05-18T03:39:01.352Z,100480.38
2019-05-18T03:41:30.089Z,100473.77
2019-05-18T03:43:58.750Z,100479.92
2019-05-18T03:46:27.417Z,100478.92
2019-05-18T03:48:56.137Z,100480.16
2019-05-18T03:51:24.809Z,100472.88
2019-05-18T03:53:53.572Z,100480.38
2019-05-18T03:56:22.236Z,100482.62
2019-05-18T03:58:51.020Z,100480.59
2019-05-18T04:01:19.705Z,100478.74
2019-05-18T04:03:48.386Z,100480.81
2019-05-18T04:06:17.175Z,100473.55
2019-05-18T04:08:45.904Z,100476.63
2019-05-18T04:11:14.681Z,100468.98
2019-05-18T04:13:43.366Z,100470.20
2019-05-18T04:16:12.069Z,100471.58
2019-05-18T04:18:40.845Z,100469.22
2019-05-18T04:21:10.702Z,100465.48
2019-05-18T04:23:39.377Z,100470.92
2019-05-18T04:26:08.139Z,100460.23
2019-05-18T04:28:36.883Z,100467.94
2019-05-18T04:31:05.683Z,100473.24
2019-05-18T04:33:34.492Z,100483.28
2019-05-18T04:36:03.163Z,100483.45
2019-05-18T04:38:31.889Z,100485.02
2019-05-18T04:41:00.565Z,100482.47
2019-05-18T04:43:29.349Z,100488.44
2019-05-18T04:45:58.040Z,100487.12
2019-05-18T04:48:26.740Z,100490.53
2019-05-18T04:50:56.906Z,100479.55
2019-05-18T04:53:25.634Z,100495.22
2019-05-18T04:55:54.369Z,100485.34
2019-05-18T04:58:23.054Z,100482.45
2019-05-18T05:00:51.776Z,100486.22
2019-05-18T05:03:20.466Z,100478.38
2019-05-18T05:05:49.160Z,100484.34
2019-05-18T05:08:17.856Z,100484.35
2019-05-18T05:10:52.467Z,100480.46
2019-05-18T05:13:21.137Z,100486.76
2019-05-18T05:15:49.830Z,100489.52
2019-05-18T05:18:18.510Z,100485.23
2019-05-18T05:20:47.228Z,100479.14
2019-05-18T05:23:15.974Z,100476.73
2019-05-18T05:25:44.680Z,100475.73
2019-05-18T05:28:13.346Z,100470.46
2019-05-18T05:30:42.265Z,100472.83
2019-05-18T05:33:10.942Z,100468.41
2019-05-18T05:35:39.646Z,100468.23
2019-05-18T05:38:08.320Z,100473.19
2019-05-18T05:40:53.527Z,100468.26
2019-05-18T05:43:21.409Z,100468.06
2019-05-18T05:45:50.136Z,100472.82
2019-05-18T05:48:18.827Z,100476.91
2019-05-18T05:50:47.501Z,100469.20
2019-05-18T05:53:16.462Z,100465.43
2019-05-18T05:55:45.193Z,100476.81
2019-05-18T05:58:13.930Z,100471.50
2019-05-18T06:00:42.645Z,100473.33
2019-05-18T06:03:11.406Z,100474.70
2019-05-18T06:05:40.107Z,100478.94
2019-05-18T06:08:08.891Z,100476.36
2019-05-18T06:10:37.566Z,100473.41
2019-05-18T06:13:06.318Z,100476.45
2019-05-18T06:15:37.770Z,100480.83
2019-05-18T06:18:06.466Z,100483.22
2019-05-18T06:20:49.016Z,100481.97
2019-05-18T06:23:05.794Z,100480.11
2019-05-18T06:25:34.674Z,100484.92
2019-05-18T06:28:03.448Z,100489.48
2019-05-18T06:30:32.143Z,100490.21
2019-05-18T06:33:00.825Z,100482.55
2019-05-18T06:35:29.543Z,100484.45
2019-05-18T06:37:58.226Z,100487.80
2019-05-18T06:40:26.927Z,100488.11
2019-05-18T06:42:55.603Z,100486.98
2019-05-18T06:45:24.366Z,100494.62
2019-05-18T06:47:53.044Z,100490.27
2019-05-18T06:50:27.301Z,100486.29
2019-05-18T06:52:56.174Z,100494.48
2019-05-18T06:55:26.729Z,100490.81
2019-05-18T06:57:57.665Z,100492.82
2019-05-18T07:00:26.416Z,100492.82
2019-05-18T07:02:55.465Z,100489.17
2019-05-18T07:05:24.243Z,100484.56
2019-05-18T07:07:52.932Z,100486.91
2019-05-18T07:10:21.755Z,100485.27
2019-05-18T07:12:50.499Z,100479.48
2019-05-18T07:15:19.571Z,100482.72
2019-05-18T07:17:48.387Z,100487.71
2019-05-18T07:20:18.556Z,100493.65
2019-05-18T07:22:47.271Z,100491.17
2019-05-18T07:25:16.545Z,100500.69
2019-05-18T07:27:45.213Z,100493.36
2019-05-18T07:30:14.594Z,100492.66
2019-05-18T07:32:43.751Z,100499.12
2019-05-18T07:35:12.994Z,100492.54
2019-05-18T07:37:41.675Z,100498.53
2019-05-18T07:40:11.609Z,100500.55
2019-05-18T07:42:40.367Z,100506.42
2019-05-18T07:45:09.537Z,100503.45
2019-05-18T07:47:38.209Z,100508.51
2019-05-18T07:50:07.451Z,100497.44
2019-05-18T07:52:36.122Z,100500.42
2019-05-18T07:55:06.256Z,100499.58
2019-05-18T07:57:34.938Z,100495.50
2019-05-18T08:00:04.248Z,100501.83
2019-05-18T08:02:33.007Z,100500.74
2019-05-18T08:05:01.823Z,100500.64
2019-05-18T08:07:30.592Z,100497.10
2019-05-18T08:09:59.401Z,100498.90
2019-05-18T08:12:28.072Z,100500.49
2019-05-18T08:14:56.778Z,100503.98
2019-05-18T08:17:25.540Z,100507.16
2019-05-18T08:19:54.311Z,100504.17
2019-05-18T08:22:22.986Z,100499.30
2019-05-18T08:24:51.762Z,100494.00
2019-05-18T08:27:20.490Z,100501.91
2019-05-18T08:29:49.552Z,100492.16
2019-05-18T08:32:18.237Z,100490.45
2019-05-18T08:34:47.061Z,100492.70
2019-05-18T08:37:15.741Z,100493.52
2019-05-18T08:39:44.443Z,100493.83
2019-05-18T08:42:13.205Z,100495.30
2019-05-18T08:44:42.042Z,100491.34
2019-05-18T08:47:10.724Z,100492.35
2019-05-18T08:49:39.519Z,100490.27
2019-05-18T08:52:08.891Z,100492.11
2019-05-18T08:54:37.630Z,100490.86
2019-05-18T08:57:06.385Z,100491.58
2019-05-18T08:59:35.083Z,100488.39
2019-05-18T09:02:03.756Z,100487.64
2019-05-18T09:04:33.390Z,100481.59
2019-05-18T09:07:02.101Z,100480.92
2019-05-18T09:09:30.843Z,100489.92
2019-05-18T09:11:59.595Z,100484.01
2019-05-18T09:14:28.323Z,100477.18
2019-05-18T09:16:57.010Z,100477.06
2019-05-18T09:19:25.792Z,100485.97
2019-05-18T09:21:54.538Z,100479.27
2019-05-18T09:24:23.218Z,100475.34
2019-05-18T09:26:52.009Z,100483.45
2019-05-18T09:29:20.795Z,100469.76
2019-05-18T09:31:49.548Z,100467.42
2019-05-18T09:34:18.280Z,100462.55
2019-05-18T09:36:46.987Z,100476.63
2019-05-18T09:39:15.748Z,100469.04
2019-05-18T09:41:44.532Z,100475.56
2019-05-18T09:44:13.226Z,100469.67
2019-05-18T09:46:41.906Z,100460.70
2019-05-18T09:49:11.275Z,100465.92
2019-05-18T09:51:40.042Z,100462.59
2019-05-18T09:54:08.790Z,100466.70
2019-05-18T09:56:37.509Z,100471.12
2019-05-18T09:59:06.195Z,100469.86
2019-05-18T10:01:35.417Z,100467.52
2019-05-18T10:04:04.377Z,100461.44
2019-05-18T10:06:33.071Z,100453.75
2019-05-18T10:09:01.738Z,100458.95
2019-05-18T10:11:37.942Z,100452.28
2019-05-18T10:14:01.031Z,100449.17
2019-05-18T10:16:29.740Z,100444.05
2019-05-18T10:18:58.487Z,100440.02
2019-05-18T10:21:27.267Z,100428.67
2019-05-18T10:23:56.037Z,100429.63
2019-05-18T10:26:26.663Z,100438.86
2019-05-18T10:28:55.418Z,100434.83
2019-05-18T10:31:24.320Z,100422.34
2019-05-18T10:33:53.057Z,100431.30
2019-05-18T10:36:21.777Z,100420.83
2019-05-18T10:38:50.450Z,100427.02
2019-05-18T10:41:19.245Z,100433.06
2019-05-18T10:43:47.924Z,100419.35
2019-05-18T10:46:16.637Z,100412.77
2019-05-18T10:48:45.386Z,100418.91
2019-05-18T10:51:14.085Z,100420.55
2019-05-18T10:53:42.781Z,100408.34
2019-05-18T10:56:11.481Z,100398.12
2019-05-18T10:58:40.239Z,100403.86
2019-05-18T11:01:09.012Z,100398.23
2019-05-18T11:03:37.757Z,100390.64
2019-05-18T11:06:06.531Z,100396.03
2019-05-18T11:08:38.280Z,100389.64
2019-05-18T11:11:05.917Z,100385.45
2019-05-18T11:13:34.676Z,100378.86
2019-05-18T11:16:03.466Z,100382.59
2019-05-18T11:18:32.134Z,100382.69
2019-05-18T11:21:00.907Z,100377.23
2019-05-18T11:23:42.847Z,100376.81
2019-05-18T11:26:00.096Z,100381.23
2019-05-18T11:28:28.752Z,100374.91
2019-05-18T11:30:58.816Z,100371.88
2019-05-18T11:33:27.573Z,100372.18
2019-05-18T11:35:56.259Z,100375.55
2019-05-18T11:38:24.969Z,100373.84
2019-05-18T11:40:53.703Z,100375.48
2019-05-18T11:43:22.414Z,100379.73
2019-05-18T11:45:51.112Z,100379.05
2019-05-18T11:48:19.827Z,100379.59
2019-05-18T11:50:48.626Z,100378.12
2019-05-18T11:53:17.391Z,100370.81
2019-05-18T11:55:47.689Z,100366.69
2019-05-18T11:58:16.465Z,100367.70
2019-05-18T12:00:45.215Z,100365.19
2019-05-18T12:03:14.008Z,100367.16
2019-05-18T12:05:42.755Z,100365.46
2019-05-18T12:08:11.468Z,100364.36
2019-05-18T12:10:40.154Z,100358.02
2019-05-18T12:13:10.664Z,100359.66
2019-05-18T12:15:39.341Z,100365.88
2019-05-18T12:18:08.047Z,100355.20
2019-05-18T12:20:36.710Z,100356.23
2019-05-18T12:23:08.238Z,100345.92
2019-05-18T12:25:36.070Z,100345.00
2019-05-18T12:28:04.809Z,100353.59
2019-05-18T12:30:33.647Z,100352.07
2019-05-18T12:33:02.345Z,100346.47
2019-05-18T12:35:31.111Z,100357.30
2019-05-18T12:37:59.906Z,100352.03
2019-05-18T12:40:28.579Z,100347.92
2019-05-18T12:42:57.311Z,100349.52
2019-05-18T12:45:26.035Z,100347.47
2019-05-18T12:47:54.846Z,100342.77
2019-05-18T12:50:24.214Z,100346.19
2019-05-18T12:52:54.894Z,100348.98
2019-05-18T12:55:23.784Z,100344.76
2019-05-18T12:57:53.983Z,100342.56
2019-05-18T13:00:23.358Z,100336.89
2019-05-18T13:02:52.139Z,100339.43
2019-05-18T13:05:21.054Z,100336.91
2019-05-18T13:07:49.758Z,100336.50
2019-05-18T13:10:19.538Z,100335.52
2019-05-18T13:12:48.314Z,100331.17
2019-05-18T13:15:17.291Z,100333.70
2019-05-18T13:17:45.998Z,100331.50
2019-05-18T13:20:15.410Z,100329.14
2019-05-18T13:22:44.171Z,100316.05
2019-05-18T13:25:13.441Z,100319.03
2019-05-18T13:27:42.218Z,100313.52
2019-05-18T13:30:13.297Z,100313.83
2019-05-18T13:32:42.019Z,100304.77
2019-05-18T13:35:12.907Z,100302.00
2019-05-18T13:37:41.624Z,100302.77
2019-05-18T13:40:11.133Z,100307.46
2019-05-18T13:42:39.837Z,100303.55
2019-05-18T13:45:10.435Z,100305.96
2019-05-18T13:47:41.155Z,100308.04
2019-05-18T13:50:10.057Z,100303.97
2019-05-18T13:52:38.818Z,100299.67
2019-05-18T13:55:08.012Z,100308.77
2019-05-18T13:57:36.722Z,100305.27
2019-05-18T14:00:07.529Z,100299.05
2019-05-18T14:02:36.274Z,100293.63
2019-05-18T14:05:05.660Z,100291.97
2019-05-18T14:07:34.490Z,100288.88
2019-05-18T14:10:03.407Z,100297.97
2019-05-18T14:12:32.069Z,100293.14
2019-05-18T14:15:00.775Z,100288.37
2019-05-18T14:17:29.455Z,100289.88
2019-05-18T14:20:01.208Z,100287.39
2019-05-18T14:22:29.973Z,100284.34
2019-05-18T14:24:58.711Z,100284.64
2019-05-18T14:27:27.473Z,100286.30
2019-05-18T14:29:56.241Z,100280.52
2019-05-18T14:32:24.919Z,100284.95
2019-05-18T14:35:01.763Z,100283.22
2019-05-18T14:37:33.810Z,100272.42
2019-05-18T14:40:02.662Z,100280.55
2019-05-18T14:42:31.403Z,100274.89
2019-05-18T14:45:01.887Z,100269.59
2019-05-18T14:47:30.668Z,100268.95
2019-05-18T14:49:59.375Z,100271.58
2019-05-18T14:52:28.055Z,100275.70
2019-05-18T14:54:57.537Z,100261.00
2019-05-18T14:57:26.209Z,100263.00
2019-05-18T14:59:55.158Z,100266.72
2019-05-18T15:02:25.478Z,100263.45
2019-05-18T15:04:57.652Z,100266.55
2019-05-18T15:07:26.307Z,100265.96
2019-05-18T15:09:55.009Z,100265.83
2019-05-18T15:12:23.675Z,100264.25
2019-05-18T15:14:52.460Z,100264.16
2019-05-18T15:17:21.197Z,100261.84
2019-05-18T15:19:50.025Z,100256.79
2019-05-18T15:22:18.791Z,100252.23
2019-05-18T15:24:47.587Z,100257.59
2019-05-18T15:27:16.257Z,100256.67
2019-05-18T15:29:44.947Z,100253.46
2019-05-18T15:32:13.608Z,100255.94
2019-05-18T15:34:42.387Z,100247.83
2019-05-18T15:37:11.065Z,100253.39
2019-05-18T15:39:39.783Z,100252.45
2019-05-18T15:42:08.479Z,100255.02
2019-05-18T15:44:37.188Z,100254.63
2019-05-18T15:47:05.854Z,100256.87
2019-05-18T15:49:34.851Z,100253.34
2019-05-18T15:52:03.652Z,100259.61
2019-05-18T15:54:32.451Z,100255.21
2019-05-18T15:57:01.193Z,100248.02
2019-05-18T15:59:29.967Z,100254.63
2019-05-18T16:01:58.669Z,100256.66
2019-05-18T16:04:27.441Z,100257.48
2019-05-18T16:06:58.854Z,100260.88
2019-05-18T16:09:29.293Z,100256.94
2019-05-18T16:11:58.085Z,100267.11
2019-05-18T16:14:27.092Z,100265.06
2019-05-18T16:16:55.794Z,100261.17
2019-05-18T16:19:24.706Z,100259.56
2019-05-18T16:21:53.704Z,100263.02
2019-05-18T16:24:22.426Z,100262.03
2019-05-18T16:26:51.177Z,100266.06
2019-05-18T16:29:19.916Z,100263.83
2019-05-18T16:31:48.851Z,100255.30
2019-05-18T16:34:17.541Z,100256.02
2019-05-18T16:36:46.229Z,100255.86
2019-05-18T16:39:14.924Z,100261.31
2019-05-18T16:41:43.704Z,100256.64
2019-05-18T16:44:12.377Z,100253.48
2019-05-18T16:46:41.180Z,100252.53
2019-05-18T16:49:09.931Z,100250.66
2019-05-18T16:51:38.630Z,100247.42
2019-05-18T16:54:07.453Z,100245.64
2019-05-18T16:56:36.850Z,100255.13
2019-05-18T16:59:05.571Z,100246.67
2019-05-18T17:01:34.388Z,100251.90
2019-05-18T17:04:03.110Z,100249.33
2019-05-18T17:06:31.934Z,100255.38
2019-05-18T17:09:00.682Z,100252.53
2019-05-18T17:11:34.401Z,100254.51
2019-05-18T17:14:03.352Z,100254.31
2019-05-18T17:16:32.039Z,100256.40
2019-05-18T17:19:00.715Z,100256.91
2019-05-18T17:21:29.439Z,100270.16
2019-05-18T17:23:58.146Z,100272.33
2019-05-18T17:26:28.305Z,100266.58
2019-05-18T17:28:57.004Z,100271.28
2019-05-18T17:31:25.807Z,100274.14
2019-05-18T17:33:54.535Z,100281.66
2019-05-18T17:36:24.280Z,100274.73
2019-05-18T17:39:04.445Z,100274.55
2019-05-18T17:41:33.346Z,100274.55
2019-05-18T17:44:02.114Z,100280.44
2019-05-18T17:46:30.819Z,100280.76
2019-05-18T17:48:59.518Z,100284.59
2019-05-18T17:51:28.284Z,100286.25
2019-05-18T17:53:57.048Z,100285.30
2019-05-18T17:56:25.778Z,100286.01
2019-05-18T17:58:54.562Z,100288.45
2019-05-18T18:01:23.433Z,100283.70
2019-05-18T18:03:52.125Z,100280.23
2019-05-18T18:06:20.947Z,100286.50
2019-05-18T18:08:49.748Z,100285.66
2019-05-18T18:11:18.571Z,100292.14
2019-05-18T18:13:47.242Z,100296.17
2019-05-18T18:16:15.948Z,100300.06
2019-05-18T18:18:44.708Z,100296.44
2019-05-18T18:21:13.483Z,100292.38
2019-05-18T18:23:42.239Z,100302.19
2019-05-18T18:26:11.024Z,100308.77
2019-05-18T18:28:39.683Z,100303.36
2019-05-18T18:31:08.463Z,100305.09
2019-05-18T18:33:37.136Z,100310.06
2019-05-18T18:36:05.907Z,100309.67
2019-05-18T18:38:34.619Z,100309.86
2019-05-18T18:41:03.444Z,100306.78
2019-05-18T18:43:32.357Z,100304.91
2019-05-18T18:46:01.044Z,100302.09
2019-05-18T18:48:29.797Z,100304.56
2019-05-18T18:51:01.175Z,100311.37
2019-05-18T18:53:29.934Z,100304.11
2019-05-18T18:55:58.734Z,100307.08
2019-05-18T18:58:27.505Z,100307.38
2019-05-18T19:00:56.172Z,100316.38
2019-05-18T19:03:24.944Z,100317.16
2019-05-18T19:05:53.640Z,100320.24
2019-05-18T19:08:22.426Z,100318.98
2019-05-18T19:10:51.169Z,100316.95
2019-05-18T19:13:22.903Z,100315.19
2019-05-18T19:15:51.677Z,100320.47
2019-05-18T19:18:20.459Z,100317.52
2019-05-18T19:20:49.223Z,100319.75
2019-05-18T19:23:17.944Z,100322.20
2019-05-18T19:25:46.697Z,100321.78
2019-05-18T19:28:15.588Z,100328.14
2019-05-18T19:30:44.364Z,100327.12
2019-05-18T19:33:13.189Z,100334.53
2019-05-18T19:35:41.836Z,100332.39
2019-05-18T19:38:10.790Z,100336.48
2019-05-18T19:40:39.468Z,100339.97
2019-05-18T19:43:08.323Z,100340.87
2019-05-18T19:45:37.078Z,100345.42
2019-05-18T19:48:07.596Z,100351.52
2019-05-18T19:50:36.394Z,100353.37
2019-05-18T19:53:07.165Z,100345.92
2019-05-18T19:55:35.927Z,100353.50
2019-05-18T19:58:08.960Z,100353.50
2019-05-18T20:00:35.102Z,100350.12
2019-05-18T20:03:03.875Z,100345.42
2019-05-18T20:05:32.591Z,100356.26
2019-05-18T20:08:04.153Z,100351.58
2019-05-18T20:10:32.967Z,100351.28
2019-05-18T20:13:01.681Z,100348.36
2019-05-18T20:15:30.348Z,100341.60
2019-05-18T20:17:59.081Z,100349.80
2019-05-18T20:20:30.618Z,100348.25
2019-05-18T20:22:59.411Z,100343.38
2019-05-18T20:25:28.078Z,100346.04
2019-05-18T20:27:56.870Z,100347.19
2019-05-18T20:30:25.671Z,100345.89
2019-05-18T20:32:54.428Z,100357.12
2019-05-18T20:35:26.150Z,100347.40
2019-05-18T20:37:54.963Z,100344.28
2019-05-18T20:40:23.649Z,100348.69
2019-05-18T20:42:52.462Z,100350.41
2019-05-18T20:45:21.532Z,100356.34
2019-05-18T20:47:50.449Z,100353.92
2019-05-18T20:50:19.290Z,100358.27
2019-05-18T20:52:48.022Z,100360.17
2019-05-18T20:55:16.914Z,100354.81
2019-05-18T20:57:45.631Z,100358.80
2019-05-18T21:00:15.780Z,100362.25
2019-05-18T21:02:44.519Z,100361.57
2019-05-18T21:05:13.435Z,100359.89
2019-05-18T21:07:42.225Z,100361.94
2019-05-18T21:10:11.395Z,100355.39
2019-05-18T21:12:40.150Z,100355.16
2019-05-18T21:15:11.127Z,100352.48
2019-05-18T21:17:39.793Z,100355.28
2019-05-18T21:20:09.118Z,100358.72
2019-05-18T21:22:37.988Z,100359.27
2019-05-18T21:25:07.379Z,100353.43
2019-05-18T21:27:36.220Z,100358.00
2019-05-18T21:30:05.985Z,100365.27
2019-05-18T21:32:34.753Z,100357.88
2019-05-18T21:35:04.122Z,100365.59
2019-05-18T21:37:34.547Z,100368.80
2019-05-18T21:40:03.370Z,100364.53
2019-05-18T21:42:33.813Z,100369.44
2019-05-18T21:45:02.693Z,100366.23
2019-05-18T21:47:31.663Z,100366.46
2019-05-18T21:50:00.415Z,100363.69
2019-05-18T21:52:29.183Z,100362.15
2019-05-18T21:54:57.905Z,100360.66
2019-05-18T21:57:26.598Z,100356.91
2019-05-18T21:59:55.780Z,100362.87
2019-05-18T22:02:25.927Z,100361.63
2019-05-18T22:04:54.727Z,100360.52
2019-05-18T22:07:23.489Z,100353.16
2019-05-18T22:09:53.770Z,100358.94
2019-05-18T22:12:22.755Z,100360.22
2019-05-18T22:14:51.435Z,100360.04
2019-05-18T22:17:20.295Z,100355.59
2019-05-18T22:19:49.020Z,100359.69
2019-05-18T22:22:17.822Z,100366.42
2019-05-18T22:24:46.549Z,100364.01
2019-05-18T22:27:15.301Z,100357.66
2019-05-18T22:29:44.165Z,100355.33
2019-05-18T22:32:12.911Z,100358.02
2019-05-18T22:34:41.623Z,100358.93
2019-05-18T22:37:10.374Z,100354.60
2019-05-18T22:39:39.093Z,100354.16
2019-05-18T22:42:08.887Z,100348.16
2019-05-18T22:44:37.598Z,100350.41
2019-05-18T22:47:06.290Z,100343.93
2019-05-18T22:49:35.071Z,100351.36
2019-05-18T22:52:03.762Z,100353.39
2019-05-18T22:54:32.542Z,100352.52
2019-05-18T22:57:01.305Z,100346.38
2019-05-18T22:59:30.025Z,100349.85
2019-05-18T23:02:00.153Z,100349.07
2019-05-18T23:04:28.854Z,100349.56
2019-05-18T23:06:57.595Z,100343.93
2019-05-18T23:09:26.325Z,100346.84
2019-05-18T23:11:55.075Z,100344.42
2019-05-18T23:14:23.813Z,100342.04
2019-05-18T23:16:52.545Z,100341.95
2019-05-18T23:19:21.280Z,100344.11
2019-05-18T23:21:50.030Z,100342.34
2019-05-18T23:24:18.742Z,100329.18
2019-05-18T23:26:47.439Z,100331.39
2019-05-18T23:29:16.147Z,100329.23
2019-05-18T23:31:44.839Z,100337.19
2019-05-18T23:34:15.100Z,100326.97
2019-05-18T23:36:43.798Z,100331.55
2019-05-18T23:39:12.533Z,100323.91
2019-05-18T23:41:41.225Z,100318.28
2019-05-18T23:44:09.898Z,100321.36
2019-05-18T23:46:38.594Z,100317.98
2019-05-18T23:49:10.988Z,100318.72
2019-05-18T23:51:38.158Z,100325.95
2019-05-18T23:54:06.889Z,100321.17
2019-05-18T23:56:35.666Z,100325.11
2019-05-18T23:59:05.249Z,100322.37
